sensor_id;sensor_type;location;lat;lon;timestamp;pressure;altitude;pressure_sealevel;temperature;humidity
1726;BME280;41776;48.260;8.928;2023-02-17T00:00:28;52345.38;;;-145.69;88.58
1726;BME280;41776;48.260;8.928;2023-02-17T00:02:55;52345.38;;;-145.69;87.34
1726;BME280;41776;48.260;8.928;2023-02-17T00:05:22;52343.38;;;-145.69;86.73
1726;BME280;41776;48.260;8.928;2023-02-17T00:07:49;52333.47;;;-145.69;90.69
1726;BME280;41776;48.260;8.928;2023-02-17T00:10:15;52345.38;;;-145.69;90.79
1726;BME280;41776;48.260;8.928;2023-02-17T00:12:42;52351.31;;;-145.69;91.07
1726;BME280;41776;48.260;8.928;2023-02-17T00:15:10;52361.22;;;-145.69;89.78
1726;BME280;41776;48.260;8.928;2023-02-17T00:17:37;52309.72;;;-145.69;90.54
1726;BME280;41776;48.260;8.928;2023-02-17T00:20:04;52367.16;;;-145.69;89.66
1726;BME280;41776;48.260;8.928;2023-02-17T00:22:33;52285.97;;;-145.69;86.30
1726;BME280;41776;48.260;8.928;2023-02-17T00:25:01;52331.50;;;-145.69;83.92
1726;BME280;41776;48.260;8.928;2023-02-17T00:27:31;52307.75;;;-145.69;84.46
1726;BME280;41776;48.260;8.928;2023-02-17T00:29:57;52315.66;;;-145.69;87.27
1726;BME280;41776;48.260;8.928;2023-02-17T00:32:25;52373.09;;;-145.69;90.54
1726;BME280;41776;48.260;8.928;2023-02-17T00:34:52;52323.59;;;-145.69;89.91
1726;BME280;41776;48.260;8.928;2023-02-17T00:37:23;52349.31;;;-145.69;88.60
1726;BME280;41776;48.260;8.928;2023-02-17T00:39:49;52327.53;;;-145.69;90.87
1726;BME280;41776;48.260;8.928;2023-02-17T00:42:16;52341.41;;;-145.69;90.42
1726;BME280;41776;48.260;8.928;2023-02-17T00:44:42;52357.25;;;-145.69;90.56
1726;BME280;41776;48.260;8.928;2023-02-17T00:47:11;52329.53;;;-145.69;91.81
1726;BME280;41776;48.260;8.928;2023-02-17T00:49:39;52325.56;;;-145.69;92.14
1726;BME280;41776;48.260;8.928;2023-02-17T00:52:07;52353.28;;;-145.69;90.57
1726;BME280;41776;48.260;8.928;2023-02-17T00:54:33;52333.47;;;-145.69;90.04
1726;BME280;41776;48.260;8.928;2023-02-17T00:57:02;52321.59;;;-145.69;90.25
1726;BME280;41776;48.260;8.928;2023-02-17T00:59:29;52333.47;;;-145.69;93.62
1726;BME280;41776;48.260;8.928;2023-02-17T01:01:55;52329.53;;;-145.69;91.17
1726;BME280;41776;48.260;8.928;2023-02-17T01:04:22;52355.28;;;-145.69;91.30
1726;BME280;41776;48.260;8.928;2023-02-17T01:06:52;52331.50;;;-145.69;91.83
1726;BME280;41776;48.260;8.928;2023-02-17T01:09:20;52347.34;;;-145.69;93.99
1726;BME280;41776;48.260;8.928;2023-02-17T01:11:50;52331.50;;;-145.69;96.81
1726;BME280;41776;48.260;8.928;2023-02-17T01:14:16;52341.41;;;-145.69;95.32
1726;BME280;41776;48.260;8.928;2023-02-17T01:16:44;52349.31;;;-145.69;92.99
1726;BME280;41776;48.260;8.928;2023-02-17T01:19:13;52339.44;;;-145.69;93.04
1726;BME280;41776;48.260;8.928;2023-02-17T01:21:40;52367.16;;;-145.69;95.85
1726;BME280;41776;48.260;8.928;2023-02-17T01:24:08;52321.59;;;-145.69;95.82
1726;BME280;41776;48.260;8.928;2023-02-17T01:26:36;52339.44;;;-145.69;96.03
1726;BME280;41776;48.260;8.928;2023-02-17T01:29:04;52355.28;;;-145.69;97.50
1726;BME280;41776;48.260;8.928;2023-02-17T01:31:31;52349.31;;;-145.69;97.19
1726;BME280;41776;48.260;8.928;2023-02-17T01:33:59;52341.41;;;-145.69;96.36
1726;BME280;41776;48.260;8.928;2023-02-17T01:36:27;52343.38;;;-145.69;96.81
1726;BME280;41776;48.260;8.928;2023-02-17T01:38:59;52363.19;;;-145.69;95.44
1726;BME280;41776;48.260;8.928;2023-02-17T01:41:29;52355.28;;;-145.69;95.92
1726;BME280;41776;48.260;8.928;2023-02-17T01:44:04;52345.38;;;-145.69;97.02
1726;BME280;41776;48.260;8.928;2023-02-17T01:46:31;52343.38;;;-145.69;98.38
1726;BME280;41776;48.260;8.928;2023-02-17T01:49:03;52333.47;;;-145.69;97.07
1726;BME280;41776;48.260;8.928;2023-02-17T01:51:36;52345.38;;;-145.69;96.68
1726;BME280;41776;48.260;8.928;2023-02-17T01:54:08;52357.25;;;-145.69;96.84
1726;BME280;41776;48.260;8.928;2023-02-17T01:56:40;52337.44;;;-145.69;99.39
1726;BME280;41776;48.260;8.928;2023-02-17T01:59:14;52361.22;;;-145.69;98.62
1726;BME280;41776;48.260;8.928;2023-02-17T02:01:42;52341.41;;;-145.69;98.90
1726;BME280;41776;48.260;8.928;2023-02-17T02:04:10;52349.31;;;-145.69;98.39
1726;BME280;41776;48.260;8.928;2023-02-17T02:06:39;52329.53;;;-145.69;97.98
1726;BME280;41776;48.260;8.928;2023-02-17T02:09:14;52347.34;;;-145.69;99.80
1726;BME280;41776;48.260;8.928;2023-02-17T02:11:43;52319.63;;;-145.69;100.00
1726;BME280;41776;48.260;8.928;2023-02-17T02:14:10;52331.50;;;-145.69;100.00
1726;BME280;41776;48.260;8.928;2023-02-17T02:16:42;52343.38;;;-145.69;100.00
1726;BME280;41776;48.260;8.928;2023-02-17T02:19:26;52276.06;;;-145.69;100.00
1726;BME280;41776;48.260;8.928;2023-02-17T02:22:22;52341.41;;;-145.69;100.00
1726;BME280;41776;48.260;8.928;2023-02-17T02:24:58;52297.84;;;-145.69;100.00
1726;BME280;41776;48.260;8.928;2023-02-17T02:27:44;52341.41;;;-145.69;100.00
1726;BME280;41776;48.260;8.928;2023-02-17T02:30:28;52291.91;;;-145.69;100.00
1726;BME280;41776;48.260;8.928;2023-02-17T02:33:11;52335.47;;;-145.69;100.00
1726;BME280;41776;48.260;8.928;2023-02-17T02:35:50;52359.22;;;-145.69;100.00
1726;BME280;41776;48.260;8.928;2023-02-17T02:38:23;52297.84;;;-145.69;100.00
1726;BME280;41776;48.260;8.928;2023-02-17T02:40:52;52337.44;;;-145.69;100.00
1726;BME280;41776;48.260;8.928;2023-02-17T02:43:25;52349.31;;;-145.69;100.00
1726;BME280;41776;48.260;8.928;2023-02-17T02:45:53;52325.56;;;-145.69;100.00
1726;BME280;41776;48.260;8.928;2023-02-17T02:48:21;52347.34;;;-145.69;100.00
1726;BME280;41776;48.260;8.928;2023-02-17T02:51:25;52327.53;;;-145.69;100.00
1726;BME280;41776;48.260;8.928;2023-02-17T02:54:14;52355.28;;;-145.69;100.00
1726;BME280;41776;48.260;8.928;2023-02-17T02:57:01;52343.38;;;-145.69;100.00
1726;BME280;41776;48.260;8.928;2023-02-17T02:59:36;52371.13;;;-145.69;100.00
1726;BME280;41776;48.260;8.928;2023-02-17T03:02:14;52317.66;;;-145.69;100.00
1726;BME280;41776;48.260;8.928;2023-02-17T03:04:50;52349.31;;;-145.69;100.00
1726;BME280;41776;48.260;8.928;2023-02-17T03:07:23;52325.56;;;-145.69;100.00
1726;BME280;41776;48.260;8.928;2023-02-17T03:09:55;52341.41;;;-145.69;100.00
1726;BME280;41776;48.260;8.928;2023-02-17T03:12:22;52333.47;;;-145.69;100.00
1726;BME280;41776;48.260;8.928;2023-02-17T03:14:56;52319.63;;;-145.69;100.00
1726;BME280;41776;48.260;8.928;2023-02-17T03:17:23;52341.41;;;-145.69;100.00
1726;BME280;41776;48.260;8.928;2023-02-17T03:19:51;52381.00;;;-145.69;100.00
1726;BME280;41776;48.260;8.928;2023-02-17T03:22:21;52353.28;;;-145.69;100.00
1726;BME280;41776;48.260;8.928;2023-02-17T03:24:48;52349.31;;;-145.69;100.00
1726;BME280;41776;48.260;8.928;2023-02-17T03:27:15;52339.44;;;-145.69;100.00
1726;BME280;41776;48.260;8.928;2023-02-17T03:29:41;52359.22;;;-145.69;100.00
1726;BME280;41776;48.260;8.928;2023-02-17T03:32:08;52329.53;;;-145.69;100.00
1726;BME280;41776;48.260;8.928;2023-02-17T03:34:35;52341.41;;;-145.69;100.00
1726;BME280;41776;48.260;8.928;2023-02-17T03:37:03;52343.38;;;-145.69;100.00
1726;BME280;41776;48.260;8.928;2023-02-17T03:39:29;52365.16;;;-145.69;100.00
1726;BME280;41776;48.260;8.928;2023-02-17T03:41:56;52349.31;;;-145.69;100.00
1726;BME280;41776;48.260;8.928;2023-02-17T03:44:22;52349.31;;;-145.69;100.00
1726;BME280;41776;48.260;8.928;2023-02-17T03:46:49;52333.47;;;-145.69;100.00
1726;BME280;41776;48.260;8.928;2023-02-17T03:49:16;52329.53;;;-145.69;100.00
1726;BME280;41776;48.260;8.928;2023-02-17T03:51:42;52353.28;;;-145.69;100.00
1726;BME280;41776;48.260;8.928;2023-02-17T03:54:10;52331.50;;;-145.69;100.00
1726;BME280;41776;48.260;8.928;2023-02-17T03:56:36;52325.56;;;-145.69;100.00
1726;BME280;41776;48.260;8.928;2023-02-17T03:59:04;52363.19;;;-145.69;100.00
1726;BME280;41776;48.260;8.928;2023-02-17T04:01:31;52335.47;;;-145.69;100.00
1726;BME280;41776;48.260;8.928;2023-02-17T04:03:59;52329.53;;;-145.69;100.00
1726;BME280;41776;48.260;8.928;2023-02-17T04:06:26;52359.22;;;-145.69;100.00
1726;BME280;41776;48.260;8.928;2023-02-17T04:08:54;52371.13;;;-145.69;100.00
1726;BME280;41776;48.260;8.928;2023-02-17T04:11:22;52379.03;;;-145.69;100.00
1726;BME280;41776;48.260;8.928;2023-02-17T04:13:48;52369.13;;;-145.69;100.00
1726;BME280;41776;48.260;8.928;2023-02-17T04:16:19;52357.25;;;-145.69;100.00
1726;BME280;41776;48.260;8.928;2023-02-17T04:18:45;52321.59;;;-145.69;100.00
1726;BME280;41776;48.260;8.928;2023-02-17T04:21:15;52349.31;;;-145.69;100.00
1726;BME280;41776;48.260;8.928;2023-02-17T04:23:42;52319.63;;;-145.69;100.00
1726;BME280;41776;48.260;8.928;2023-02-17T04:26:09;52341.41;;;-145.69;100.00
1726;BME280;41776;48.260;8.928;2023-02-17T04:28:38;52305.75;;;-145.69;100.00
1726;BME280;41776;48.260;8.928;2023-02-17T04:31:05;52365.16;;;-145.69;100.00
1726;BME280;41776;48.260;8.928;2023-02-17T04:33:32;52357.25;;;-145.69;100.00
1726;BME280;41776;48.260;8.928;2023-02-17T04:35:58;52351.31;;;-145.69;100.00
1726;BME280;41776;48.260;8.928;2023-02-17T04:38:29;52359.22;;;-145.69;100.00
1726;BME280;41776;48.260;8.928;2023-02-17T04:40:57;52345.38;;;-145.69;100.00
1726;BME280;41776;48.260;8.928;2023-02-17T04:43:26;52333.47;;;-145.69;100.00
1726;BME280;41776;48.260;8.928;2023-02-17T04:45:54;52329.53;;;-145.69;100.00
1726;BME280;41776;48.260;8.928;2023-02-17T04:48:21;52365.16;;;-145.69;100.00
1726;BME280;41776;48.260;8.928;2023-02-17T04:50:51;52341.41;;;-145.69;100.00
1726;BME280;41776;48.260;8.928;2023-02-17T04:53:17;52369.13;;;-145.69;100.00
1726;BME280;41776;48.260;8.928;2023-02-17T04:55:47;52349.31;;;-145.69;100.00
1726;BME280;41776;48.260;8.928;2023-02-17T04:58:15;52345.38;;;-145.69;100.00
1726;BME280;41776;48.260;8.928;2023-02-17T05:00:41;52357.25;;;-145.69;100.00
1726;BME280;41776;48.260;8.928;2023-02-17T05:03:09;52337.44;;;-145.69;100.00
1726;BME280;41776;48.260;8.928;2023-02-17T05:05:35;52341.41;;;-145.69;100.00
1726;BME280;41776;48.260;8.928;2023-02-17T05:08:02;52329.53;;;-145.69;100.00
1726;BME280;41776;48.260;8.928;2023-02-17T05:10:29;52373.09;;;-145.69;100.00
1726;BME280;41776;48.260;8.928;2023-02-17T05:12:55;52351.31;;;-145.69;100.00
1726;BME280;41776;48.260;8.928;2023-02-17T05:15:22;52335.47;;;-145.69;100.00
1726;BME280;41776;48.260;8.928;2023-02-17T05:17:48;52355.28;;;-145.69;100.00
1726;BME280;41776;48.260;8.928;2023-02-17T05:20:16;52392.91;;;-145.69;100.00
1726;BME280;41776;48.260;8.928;2023-02-17T05:22:42;52357.25;;;-145.69;100.00
1726;BME280;41776;48.260;8.928;2023-02-17T05:25:09;52341.41;;;-145.69;100.00
1726;BME280;41776;48.260;8.928;2023-02-17T05:27:35;52369.13;;;-145.69;100.00
1726;BME280;41776;48.260;8.928;2023-02-17T05:30:02;52361.22;;;-145.69;100.00
1726;BME280;41776;48.260;8.928;2023-02-17T05:32:29;52297.84;;;-145.69;100.00
1726;BME280;41776;48.260;8.928;2023-02-17T05:34:56;52315.66;;;-145.69;100.00
1726;BME280;41776;48.260;8.928;2023-02-17T05:37:23;52321.59;;;-145.69;99.92
1726;BME280;41776;48.260;8.928;2023-02-17T05:39:50;52345.38;;;-145.69;100.00
1726;BME280;41776;48.260;8.928;2023-02-17T05:42:16;52319.63;;;-145.69;100.00
1726;BME280;41776;48.260;8.928;2023-02-17T05:44:43;52325.56;;;-145.69;100.00
1726;BME280;41776;48.260;8.928;2023-02-17T05:47:09;52337.44;;;-145.69;99.32
1726;BME280;41776;48.260;8.928;2023-02-17T05:49:36;52351.31;;;-145.69;98.83
1726;BME280;41776;48.260;8.928;2023-02-17T05:52:03;52359.22;;;-145.69;100.00
1726;BME280;41776;48.260;8.928;2023-02-17T05:54:31;52363.19;;;-145.69;100.00
1726;BME280;41776;48.260;8.928;2023-02-17T05:56:57;52343.38;;;-145.69;100.00
1726;BME280;41776;48.260;8.928;2023-02-17T05:59:24;52349.31;;;-145.69;100.00
1726;BME280;41776;48.260;8.928;2023-02-17T06:01:50;52353.28;;;-145.69;99.18
1726;BME280;41776;48.260;8.928;2023-02-17T06:04:17;52349.31;;;-145.69;98.94
1726;BME280;41776;48.260;8.928;2023-02-17T06:06:43;52359.22;;;-145.69;97.75
1726;BME280;41776;48.260;8.928;2023-02-17T06:09:10;52337.44;;;-145.69;97.07
1726;BME280;41776;48.260;8.928;2023-02-17T06:11:41;52335.47;;;-145.69;96.65
1726;BME280;41776;48.260;8.928;2023-02-17T06:14:07;52301.81;;;-145.69;97.01
1726;BME280;41776;48.260;8.928;2023-02-17T06:16:33;52353.28;;;-145.69;96.97
1726;BME280;41776;48.260;8.928;2023-02-17T06:19:00;52357.25;;;-145.69;95.51
1726;BME280;41776;48.260;8.928;2023-02-17T06:21:29;52341.41;;;-145.69;95.78
1726;BME280;41776;48.260;8.928;2023-02-17T06:23:56;52365.16;;;-145.69;97.01
1726;BME280;41776;48.260;8.928;2023-02-17T06:26:22;52341.41;;;-145.69;98.07
1726;BME280;41776;48.260;8.928;2023-02-17T06:28:50;52341.41;;;-145.69;98.58
1726;BME280;41776;48.260;8.928;2023-02-17T06:31:17;52337.44;;;-145.69;97.02
1726;BME280;41776;48.260;8.928;2023-02-17T06:33:43;52373.09;;;-145.69;98.95
1726;BME280;41776;48.260;8.928;2023-02-17T06:36:10;52341.41;;;-145.69;99.20
1726;BME280;41776;48.260;8.928;2023-02-17T06:38:37;52351.31;;;-145.69;98.71
1726;BME280;41776;48.260;8.928;2023-02-17T06:41:03;52371.13;;;-145.69;98.69
1726;BME280;41776;48.260;8.928;2023-02-17T06:43:30;52349.31;;;-145.69;100.00
1726;BME280;41776;48.260;8.928;2023-02-17T06:45:58;52339.44;;;-145.69;100.00
1726;BME280;41776;48.260;8.928;2023-02-17T06:48:24;52331.50;;;-145.69;100.00
1726;BME280;41776;48.260;8.928;2023-02-17T06:50:52;52333.47;;;-145.69;100.00
1726;BME280;41776;48.260;8.928;2023-02-17T06:53:19;52313.69;;;-145.69;100.00
1726;BME280;41776;48.260;8.928;2023-02-17T06:55:45;52341.41;;;-145.69;100.00
1726;BME280;41776;48.260;8.928;2023-02-17T06:58:12;52373.09;;;-145.69;100.00
1726;BME280;41776;48.260;8.928;2023-02-17T07:00:38;52361.22;;;-145.69;100.00
1726;BME280;41776;48.260;8.928;2023-02-17T07:03:06;52365.16;;;-145.69;100.00
1726;BME280;41776;48.260;8.928;2023-02-17T07:05:33;52369.13;;;-145.69;100.00
1726;BME280;41776;48.260;8.928;2023-02-17T07:08:00;52351.31;;;-145.69;100.00
1726;BME280;41776;48.260;8.928;2023-02-17T07:10:27;52317.66;;;-145.69;100.00
1726;BME280;41776;48.260;8.928;2023-02-17T07:12:54;52311.69;;;-145.69;100.00
1726;BME280;41776;48.260;8.928;2023-02-17T07:15:20;52386.97;;;-145.69;100.00
1726;BME280;41776;48.260;8.928;2023-02-17T07:17:47;52347.34;;;-145.69;100.00
1726;BME280;41776;48.260;8.928;2023-02-17T07:20:15;52341.41;;;-145.69;100.00
1726;BME280;41776;48.260;8.928;2023-02-17T07:22:42;52325.56;;;-145.69;100.00
1726;BME280;41776;48.260;8.928;2023-02-17T07:25:08;52325.56;;;-145.69;100.00
1726;BME280;41776;48.260;8.928;2023-02-17T07:27:35;52335.47;;;-145.69;100.00
1726;BME280;41776;48.260;8.928;2023-02-17T07:30:02;52351.31;;;-145.69;100.00
1726;BME280;41776;48.260;8.928;2023-02-17T07:32:29;52349.31;;;-145.69;100.00
1726;BME280;41776;48.260;8.928;2023-02-17T07:34:56;52297.84;;;-145.69;100.00
1726;BME280;41776;48.260;8.928;2023-02-17T07:37:24;52357.25;;;-145.69;100.00
1726;BME280;41776;48.260;8.928;2023-02-17T07:39:50;52335.47;;;-145.69;100.00
1726;BME280;41776;48.260;8.928;2023-02-17T07:42:17;52321.59;;;-145.69;100.00
1726;BME280;41776;48.260;8.928;2023-02-17T07:44:43;52363.19;;;-145.69;100.00
1726;BME280;41776;48.260;8.928;2023-02-17T07:47:10;52345.38;;;-145.69;100.00
1726;BME280;41776;48.260;8.928;2023-02-17T07:49:36;52321.59;;;-145.69;100.00
1726;BME280;41776;48.260;8.928;2023-02-17T07:52:03;52355.28;;;-145.69;100.00
1726;BME280;41776;48.260;8.928;2023-02-17T07:54:31;52323.59;;;-145.69;100.00
1726;BME280;41776;48.260;8.928;2023-02-17T07:56:58;52359.22;;;-145.69;100.00
1726;BME280;41776;48.260;8.928;2023-02-17T07:59:25;52337.44;;;-145.69;100.00
1726;BME280;41776;48.260;8.928;2023-02-17T08:01:51;52333.47;;;-145.69;100.00
1726;BME280;41776;48.260;8.928;2023-02-17T08:04:18;52327.53;;;-145.69;100.00
1726;BME280;41776;48.260;8.928;2023-02-17T08:06:44;52351.31;;;-145.69;100.00
1726;BME280;41776;48.260;8.928;2023-02-17T08:09:11;52317.66;;;-145.69;100.00
1726;BME280;41776;48.260;8.928;2023-02-17T08:11:56;52317.66;;;-145.69;100.00
1726;BME280;41776;48.260;8.928;2023-02-17T08:14:41;52333.47;;;-145.69;100.00
1726;BME280;41776;48.260;8.928;2023-02-17T08:17:07;52377.06;;;-145.69;100.00
1726;BME280;41776;48.260;8.928;2023-02-17T08:19:34;52341.41;;;-145.69;100.00
1726;BME280;41776;48.260;8.928;2023-02-17T08:22:00;52309.72;;;-145.69;100.00
1726;BME280;41776;48.260;8.928;2023-02-17T08:24:27;52323.59;;;-145.69;100.00
1726;BME280;41776;48.260;8.928;2023-02-17T08:26:54;52321.59;;;-145.69;100.00
1726;BME280;41776;48.260;8.928;2023-02-17T08:29:22;52291.91;;;-145.69;100.00
1726;BME280;41776;48.260;8.928;2023-02-17T08:31:50;52361.22;;;-145.69;100.00
1726;BME280;41776;48.260;8.928;2023-02-17T08:34:17;52335.47;;;-145.69;100.00
1726;BME280;41776;48.260;8.928;2023-02-17T08:36:44;52353.28;;;-145.69;100.00
1726;BME280;41776;48.260;8.928;2023-02-17T08:39:12;52315.66;;;-145.69;100.00
1726;BME280;41776;48.260;8.928;2023-02-17T08:41:40;52355.28;;;-145.69;100.00
1726;BME280;41776;48.260;8.928;2023-02-17T08:44:09;52369.13;;;-145.69;100.00
1726;BME280;41776;48.260;8.928;2023-02-17T08:46:37;52369.13;;;-145.69;100.00
1726;BME280;41776;48.260;8.928;2023-02-17T08:49:04;52343.38;;;-145.69;100.00
1726;BME280;41776;48.260;8.928;2023-02-17T08:51:32;52317.66;;;-145.69;100.00
1726;BME280;41776;48.260;8.928;2023-02-17T08:53:59;52301.81;;;-145.69;100.00
1726;BME280;41776;48.260;8.928;2023-02-17T08:56:27;52287.94;;;-145.69;100.00
1726;BME280;41776;48.260;8.928;2023-02-17T08:58:54;52325.56;;;-145.69;100.00
1726;BME280;41776;48.260;8.928;2023-02-17T09:01:23;52361.22;;;-145.69;100.00
1726;BME280;41776;48.260;8.928;2023-02-17T09:03:52;52329.53;;;-145.69;100.00
1726;BME280;41776;48.260;8.928;2023-02-17T09:06:20;52347.34;;;-145.69;100.00
1726;BME280;41776;48.260;8.928;2023-02-17T09:08:47;52333.47;;;-145.69;100.00
1726;BME280;41776;48.260;8.928;2023-02-17T09:11:14;52343.38;;;-145.69;100.00
1726;BME280;41776;48.260;8.928;2023-02-17T09:13:44;52305.75;;;-145.69;100.00
1726;BME280;41776;48.260;8.928;2023-02-17T09:16:13;52321.59;;;-145.69;100.00
1726;BME280;41776;48.260;8.928;2023-02-17T09:18:42;52329.53;;;-145.69;100.00
1726;BME280;41776;48.260;8.928;2023-02-17T09:21:13;52357.25;;;-145.69;100.00
1726;BME280;41776;48.260;8.928;2023-02-17T09:23:39;52345.38;;;-145.69;100.00
1726;BME280;41776;48.260;8.928;2023-02-17T09:26:10;52369.13;;;-145.69;100.00
1726;BME280;41776;48.260;8.928;2023-02-17T09:28:38;52307.75;;;-145.69;100.00
1726;BME280;41776;48.260;8.928;2023-02-17T09:31:09;52321.59;;;-145.69;100.00
1726;BME280;41776;48.260;8.928;2023-02-17T09:33:36;52353.28;;;-145.69;100.00
1726;BME280;41776;48.260;8.928;2023-02-17T09:36:03;52329.53;;;-145.69;100.00
1726;BME280;41776;48.260;8.928;2023-02-17T09:38:31;52317.66;;;-145.69;100.00
1726;BME280;41776;48.260;8.928;2023-02-17T09:41:02;52353.28;;;-145.69;100.00
1726;BME280;41776;48.260;8.928;2023-02-17T09:43:33;52329.53;;;-145.69;100.00
1726;BME280;41776;48.260;8.928;2023-02-17T09:46:06;52343.38;;;-145.69;100.00
1726;BME280;41776;48.260;8.928;2023-02-17T09:48:35;52341.41;;;-145.69;100.00
1726;BME280;41776;48.260;8.928;2023-02-17T09:51:07;52321.59;;;-145.69;100.00
1726;BME280;41776;48.260;8.928;2023-02-17T09:53:40;52299.81;;;-145.69;100.00
1726;BME280;41776;48.260;8.928;2023-02-17T09:56:10;52319.63;;;-145.69;100.00
1726;BME280;41776;48.260;8.928;2023-02-17T09:58:42;52319.63;;;-145.69;100.00
1726;BME280;41776;48.260;8.928;2023-02-17T10:01:17;52325.56;;;-145.69;100.00
1726;BME280;41776;48.260;8.928;2023-02-17T10:03:48;52317.66;;;-145.69;100.00
1726;BME280;41776;48.260;8.928;2023-02-17T10:06:17;52337.44;;;-145.69;100.00
1726;BME280;41776;48.260;8.928;2023-02-17T10:08:50;52323.59;;;-145.69;100.00
1726;BME280;41776;48.260;8.928;2023-02-17T10:11:24;52313.69;;;-145.69;100.00
1726;BME280;41776;48.260;8.928;2023-02-17T10:13:55;52333.47;;;-145.69;100.00
1726;BME280;41776;48.260;8.928;2023-02-17T10:16:27;52349.31;;;-145.69;100.00
1726;BME280;41776;48.260;8.928;2023-02-17T10:18:59;52325.56;;;-145.69;100.00
1726;BME280;41776;48.260;8.928;2023-02-17T10:21:28;52307.75;;;-145.69;100.00
1726;BME280;41776;48.260;8.928;2023-02-17T10:23:57;52337.44;;;-145.69;100.00
1726;BME280;41776;48.260;8.928;2023-02-17T10:26:36;52317.66;;;-145.69;100.00
1726;BME280;41776;48.260;8.928;2023-02-17T10:29:26;52319.63;;;-145.69;100.00
1726;BME280;41776;48.260;8.928;2023-02-17T10:32:06;52333.47;;;-145.69;100.00
1726;BME280;41776;48.260;8.928;2023-02-17T10:34:48;52301.81;;;-145.69;100.00
1726;BME280;41776;48.260;8.928;2023-02-17T10:37:21;52335.47;;;-145.69;100.00
1726;BME280;41776;48.260;8.928;2023-02-17T10:39:52;52313.69;;;-145.69;100.00
1726;BME280;41776;48.260;8.928;2023-02-17T10:42:26;52325.56;;;-145.69;100.00
1726;BME280;41776;48.260;8.928;2023-02-17T10:44:57;52341.41;;;-145.69;100.00
1726;BME280;41776;48.260;8.928;2023-02-17T10:47:25;52349.31;;;-145.69;100.00
1726;BME280;41776;48.260;8.928;2023-02-17T10:49:53;52295.84;;;-145.69;100.00
1726;BME280;41776;48.260;8.928;2023-02-17T10:52:23;52325.56;;;-145.69;100.00
1726;BME280;41776;48.260;8.928;2023-02-17T10:54:56;52321.59;;;-145.69;100.00
1726;BME280;41776;48.260;8.928;2023-02-17T10:57:31;52323.59;;;-145.69;100.00
1726;BME280;41776;48.260;8.928;2023-02-17T11:00:00;52373.09;;;-145.69;100.00
1726;BME280;41776;48.260;8.928;2023-02-17T11:02:33;52333.47;;;-145.69;100.00
1726;BME280;41776;48.260;8.928;2023-02-17T11:05:03;52309.72;;;-145.69;100.00
1726;BME280;41776;48.260;8.928;2023-02-17T11:07:32;52345.38;;;-145.69;100.00
1726;BME280;41776;48.260;8.928;2023-02-17T11:10:02;52353.28;;;-145.69;100.00
1726;BME280;41776;48.260;8.928;2023-02-17T11:12:33;52331.50;;;-145.69;100.00
1726;BME280;41776;48.260;8.928;2023-02-17T11:15:14;52309.72;;;-145.69;100.00
1726;BME280;41776;48.260;8.928;2023-02-17T11:17:42;52345.38;;;-145.69;100.00
1726;BME280;41776;48.260;8.928;2023-02-17T11:20:28;52349.31;;;-145.69;100.00
1726;BME280;41776;48.260;8.928;2023-02-17T11:25:43;52321.59;;;-145.69;100.00
1726;BME280;41776;48.260;8.928;2023-02-17T11:28:21;52301.81;;;-145.69;100.00
1726;BME280;41776;48.260;8.928;2023-02-17T11:30:50;52337.44;;;-145.69;100.00
1726;BME280;41776;48.260;8.928;2023-02-17T11:33:21;52313.69;;;-145.69;100.00
1726;BME280;41776;48.260;8.928;2023-02-17T11:35:50;52329.53;;;-145.69;100.00
1726;BME280;41776;48.260;8.928;2023-02-17T11:38:20;52333.47;;;-145.69;100.00
1726;BME280;41776;48.260;8.928;2023-02-17T11:40:54;52327.53;;;-145.69;100.00
1726;BME280;41776;48.260;8.928;2023-02-17T11:43:21;52333.47;;;-145.69;100.00
1726;BME280;41776;48.260;8.928;2023-02-17T11:45:57;52333.47;;;-145.69;100.00
1726;BME280;41776;48.260;8.928;2023-02-17T11:48:44;52325.56;;;-145.69;100.00
1726;BME280;41776;48.260;8.928;2023-02-17T11:51:19;52337.44;;;-145.69;100.00
1726;BME280;41776;48.260;8.928;2023-02-17T11:53:52;52291.91;;;-145.69;100.00
1726;BME280;41776;48.260;8.928;2023-02-17T11:56:33;52333.47;;;-145.69;100.00
1726;BME280;41776;48.260;8.928;2023-02-17T11:59:16;52313.69;;;-145.69;100.00
1726;BME280;41776;48.260;8.928;2023-02-17T12:02:13;52341.41;;;-145.69;100.00
1726;BME280;41776;48.260;8.928;2023-02-17T12:04:49;52266.16;;;-145.69;100.00
1726;BME280;41776;48.260;8.928;2023-02-17T12:07:38;52307.75;;;-145.69;100.00
1726;BME280;41776;48.260;8.928;2023-02-17T12:10:15;52333.47;;;-145.69;100.00
1726;BME280;41776;48.260;8.928;2023-02-17T12:13:06;52313.69;;;-145.69;100.00
1726;BME280;41776;48.260;8.928;2023-02-17T12:15:48;52341.41;;;-145.69;100.00
1726;BME280;41776;48.260;8.928;2023-02-17T12:18:32;52341.41;;;-145.69;100.00
1726;BME280;41776;48.260;8.928;2023-02-17T12:21:08;52337.44;;;-145.69;100.00
1726;BME280;41776;48.260;8.928;2023-02-17T12:23:51;52333.47;;;-145.69;100.00
1726;BME280;41776;48.260;8.928;2023-02-17T12:26:27;52323.59;;;-145.69;100.00
1726;BME280;41776;48.260;8.928;2023-02-17T12:29:16;52365.16;;;-145.69;100.00
1726;BME280;41776;48.260;8.928;2023-02-17T12:32:05;52331.50;;;-145.69;100.00
1726;BME280;41776;48.260;8.928;2023-02-17T12:34:38;52319.63;;;-145.69;100.00
1726;BME280;41776;48.260;8.928;2023-02-17T12:37:15;52343.38;;;-145.69;100.00
1726;BME280;41776;48.260;8.928;2023-02-17T12:39:47;52335.47;;;-145.69;100.00
1726;BME280;41776;48.260;8.928;2023-02-17T12:42:18;52337.44;;;-145.69;100.00
1726;BME280;41776;48.260;8.928;2023-02-17T12:44:50;52337.44;;;-145.69;100.00
1726;BME280;41776;48.260;8.928;2023-02-17T12:47:22;52343.38;;;-145.69;100.00
1726;BME280;41776;48.260;8.928;2023-02-17T12:50:03;52307.75;;;-145.69;100.00
1726;BME280;41776;48.260;8.928;2023-02-17T12:52:33;52313.69;;;-145.69;100.00
1726;BME280;41776;48.260;8.928;2023-02-17T12:55:10;52345.38;;;-145.69;100.00
1726;BME280;41776;48.260;8.928;2023-02-17T12:57:43;52297.84;;;-145.69;100.00
1726;BME280;41776;48.260;8.928;2023-02-17T13:00:20;52315.66;;;-145.69;100.00